Time;durP1;ratioP1;P1;durP2;ratioP2;P2;SDS_P1;SDS_P2;PMS_P1;PMS_P2;Temp;Humidity;BMP_temperature;BMP_pressure;BME280_temperature;BME280_humidity;BME280_pressure;Samples;Min_cycle;Max_cycle;Signal;HPM_P1;HPM_P2
2023/03/28 00:01:38;;;;;;;10.65;1.77;;;4.40;99.90;;;;;;6281397;22;20092;-91
2023/03/28 00:04:04;;;;;;;10.07;1.77;;;4.40;99.90;;;;;;6309376;22;20058;-94
2023/03/28 00:06:30;;;;;;;10.75;2.00;;;4.40;99.90;;;;;;6280939;22;20065;-92
2023/03/28 00:08:56;;;;;;;10.48;1.80;;;4.40;99.90;;;;;;6308982;22;20352;-93
2023/03/28 00:11:22;;;;;;;9.93;1.73;;;4.40;99.90;;;;;;6308830;22;20022;-93
2023/03/28 00:13:59;;;;;;;12.52;1.80;;;4.40;99.90;;;;;;6281155;22;20015;-94
2023/03/28 00:16:31;;;;;;;9.15;2.40;;;4.40;99.90;;;;;;6280877;22;20052;-95
2023/03/28 00:18:59;;;;;;;9.65;1.52;;;4.30;99.90;;;;;;6281090;22;20019;-92
2023/03/28 00:21:36;;;;;;;9.85;1.85;;;4.40;99.90;;;;;;6281149;22;20088;-92
2023/03/28 00:24:04;;;;;;;9.63;1.80;;;4.30;99.90;;;;;;6309211;22;20015;-91
2023/03/28 00:26:33;;;;;;;9.13;1.70;;;4.30;99.90;;;;;;6282035;22;20098;-93
2023/03/28 00:29:02;;;;;;;10.57;1.63;;;4.30;99.90;;;;;;6310915;22;20435;-92
2023/03/28 00:31:29;;;;;;;8.10;1.70;;;4.20;99.90;;;;;;6283101;22;20011;-93
2023/03/28 00:33:55;;;;;;;13.95;2.10;;;4.20;99.90;;;;;;6283223;22;20015;-93
2023/03/28 00:36:25;;;;;;;9.00;1.75;;;4.20;99.90;;;;;;6283085;22;20089;-93
2023/03/28 00:38:52;;;;;;;11.82;2.15;;;4.20;99.90;;;;;;6284202;22;20022;-94
2023/03/28 00:41:22;;;;;;;8.23;1.73;;;4.20;99.90;;;;;;6310475;22;20091;-93
2023/03/28 00:43:53;;;;;;;9.48;1.95;;;4.20;99.90;;;;;;6274422;22;20062;-93
2023/03/28 00:46:29;;;;;;;10.00;1.50;;;4.10;99.90;;;;;;6310826;22;20022;-93
2023/03/28 00:49:13;;;;;;;6.68;1.50;;;4.10;99.90;;;;;;6283616;22;20011;-93
2023/03/28 00:51:45;;;;;;;8.18;1.60;;;4.10;99.90;;;;;;6311042;22;20029;-94
2023/03/28 00:54:17;;;;;;;10.68;1.90;;;4.00;99.90;;;;;;6282454;22;20015;-94
2023/03/28 00:56:50;;;;;;;7.32;1.50;;;4.00;99.90;;;;;;6283341;22;20013;-94
2023/03/28 00:59:23;;;;;;;12.07;1.95;;;4.00;99.90;;;;;;6282993;22;20018;-93
2023/03/28 01:01:49;;;;;;;10.47;1.70;;;4.00;99.90;;;;;;6310187;22;20039;-93
2023/03/28 01:04:19;;;;;;;9.00;1.75;;;3.90;99.90;;;;;;6310392;22;20019;-93
2023/03/28 01:06:49;;;;;;;6.90;1.60;;;3.90;99.90;;;;;;6310091;22;20015;-92
2023/03/28 01:09:17;;;;;;;12.35;2.67;;;3.90;99.90;;;;;;6310289;22;20016;-94
2023/03/28 01:11:43;;;;;;;8.35;1.58;;;3.90;99.90;;;;;;6310967;22;20027;-93
2023/03/28 01:14:12;;;;;;;7.93;1.45;;;3.80;99.90;;;;;;6282998;22;20011;-92
2023/03/28 01:16:41;;;;;;;11.23;1.80;;;3.80;99.90;;;;;;6310334;22;20057;-92
2023/03/28 01:19:25;;;;;;;10.32;1.80;;;3.80;99.90;;;;;;6310693;22;20015;-92
2023/03/28 01:22:27;;;;;;;7.28;1.75;;;3.80;99.90;;;;;;6310964;22;20073;-93
2023/03/28 01:24:56;;;;;;;8.32;1.50;;;3.70;99.90;;;;;;6282812;22;20050;-93
2023/03/28 01:27:33;;;;;;;12.25;1.80;;;3.70;99.90;;;;;;6283010;22;20019;-92
2023/03/28 01:30:08;;;;;;;8.90;1.80;;;3.70;99.90;;;;;;6283114;22;20018;-93
2023/03/28 01:32:57;;;;;;;7.32;1.48;;;3.70;99.90;;;;;;6309837;22;20023;-94
2023/03/28 01:35:41;;;;;;;8.30;1.70;;;3.60;99.90;;;;;;6282273;22;20019;-93
2023/03/28 01:38:09;;;;;;;;;;;3.60;99.90;;;;;;6283010;22;20338;-92
2023/03/28 01:41:01;;;;;;;9.95;1.67;;;3.60;99.90;;;;;;6283191;22;19914;-92
2023/03/28 01:44:02;;;;;;;13.20;1.70;;;3.50;99.90;;;;;;6282485;22;20034;-94
2023/03/28 01:46:42;;;;;;;9.02;1.73;;;3.50;99.90;;;;;;6282641;22;20447;-93
2023/03/28 01:49:26;;;;;;;8.35;1.60;;;3.50;99.90;;;;;;6310306;22;20022;-93
2023/03/28 01:51:57;;;;;;;9.68;1.58;;;3.50;99.90;;;;;;6282628;22;20011;-93
2023/03/28 01:54:57;;;;;;;8.95;1.50;;;3.40;99.90;;;;;;6283454;22;20022;-91
2023/03/28 01:57:33;;;;;;;6.57;1.60;;;3.40;99.90;;;;;;6311347;22;20015;-92
2023/03/28 02:00:05;;;;;;;8.20;1.30;;;3.40;99.90;;;;;;6284267;22;20011;-92
2023/03/28 02:02:52;;;;;;;7.93;1.60;;;3.40;99.90;;;;;;6283591;22;20481;-92
2023/03/28 02:05:19;;;;;;;10.05;1.63;;;3.40;99.90;;;;;;6309744;22;20447;-92
2023/03/28 02:07:47;;;;;;;7.03;1.17;;;3.40;99.90;;;;;;6283776;22;20083;-93
2023/03/28 02:10:14;;;;;;;8.15;1.60;;;3.30;99.90;;;;;;6311100;22;20019;-92
2023/03/28 02:12:56;;;;;;;8.50;1.42;;;3.40;99.90;;;;;;6311509;22;20019;-91
2023/03/28 02:15:23;;;;;;;8.13;1.40;;;3.30;99.90;;;;;;6311450;22;20011;-94
2023/03/28 02:17:55;;;;;;;6.05;1.55;;;3.30;99.90;;;;;;6283176;22;20455;-93
2023/03/28 02:20:24;;;;;;;5.88;1.60;;;3.30;99.90;;;;;;6282496;22;20019;-92
2023/03/28 02:22:59;;;;;;;8.82;1.60;;;3.20;99.90;;;;;;6282437;22;20356;-91
2023/03/28 02:25:25;;;;;;;8.85;1.73;;;3.20;99.90;;;;;;6283381;22;20364;-92
2023/03/28 02:27:56;;;;;;;10.60;1.50;;;3.20;99.90;;;;;;6310073;22;20023;-92
2023/03/28 02:30:22;;;;;;;9.15;1.60;;;3.20;99.90;;;;;;6311138;22;20013;-91
2023/03/28 02:32:52;;;;;;;10.45;1.55;;;3.20;99.90;;;;;;6310417;22;20019;-91
2023/03/28 02:35:24;;;;;;;7.30;1.60;;;3.20;99.90;;;;;;6282146;22;20082;-91
2023/03/28 02:37:56;;;;;;;11.20;1.63;;;3.20;99.90;;;;;;6283253;22;20025;-89
2023/03/28 02:40:36;;;;;;;12.77;1.70;;;3.30;99.90;;;;;;6283037;22;20015;-92
2023/03/28 02:43:08;;;;;;;11.77;1.77;;;3.20;99.90;;;;;;6311235;22;20086;-94
2023/03/28 02:45:49;;;;;;;10.00;1.50;;;3.20;99.90;;;;;;6283245;22;20025;-90
2023/03/28 02:48:38;;;;;;;9.48;1.67;;;3.20;99.90;;;;;;6282616;22;20011;-91
2023/03/28 02:51:13;;;;;;;8.27;1.45;;;3.20;99.90;;;;;;6281868;22;20025;-93
2023/03/28 02:53:51;;;;;;;9.80;1.85;;;3.20;99.90;;;;;;6308912;22;20020;-91
2023/03/28 02:56:59;;;;;;;11.05;2.00;;;3.20;99.90;;;;;;6280820;22;20011;-91
2023/03/28 02:59:48;;;;;;;7.47;1.88;;;3.20;99.90;;;;;;6265515;22;20451;-90
2023/03/28 03:02:16;;;;;;;8.05;1.63;;;3.20;99.90;;;;;;6309797;22;20011;-91
2023/03/28 03:04:41;;;;;;;7.97;1.80;;;3.10;99.90;;;;;;6281735;22;20007;-90
2023/03/28 03:07:08;;;;;;;5.32;1.48;;;3.10;99.90;;;;;;6308515;22;20109;-90
2023/03/28 03:09:34;;;;;;;8.25;1.60;;;3.10;99.90;;;;;;6280823;22;20061;-90
2023/03/28 03:12:00;;;;;;;7.63;1.60;;;3.10;99.90;;;;;;6309003;22;20066;-91
2023/03/28 03:14:26;;;;;;;6.18;1.30;;;3.00;99.90;;;;;;6308273;22;20011;-91
2023/03/28 03:16:51;;;;;;;8.10;1.50;;;3.00;99.90;;;;;;6308207;22;20023;-91
2023/03/28 03:19:18;;;;;;;6.22;1.20;;;3.00;99.90;;;;;;6280906;22;20019;-91
2023/03/28 03:21:43;;;;;;;7.57;1.50;;;2.90;99.90;;;;;;6280777;22;20086;-93
2023/03/28 03:24:09;;;;;;;6.82;1.55;;;2.90;99.90;;;;;;6280672;22;20380;-93
2023/03/28 03:26:35;;;;;;;6.93;1.58;;;2.90;99.90;;;;;;6308165;22;20098;-92
2023/03/28 03:29:01;;;;;;;5.68;1.33;;;2.90;99.90;;;;;;6308124;22;20019;-92
2023/03/28 03:31:27;;;;;;;5.32;1.33;;;2.80;99.90;;;;;;6280365;22;20062;-93
2023/03/28 03:33:53;;;;;;;7.82;1.30;;;2.80;99.90;;;;;;6281488;22;20015;-93
2023/03/28 03:36:19;;;;;;;8.88;1.63;;;2.80;99.90;;;;;;6280006;22;20019;-92
2023/03/28 03:38:46;;;;;;;6.80;1.35;;;2.80;99.90;;;;;;6280763;22;20435;-91
2023/03/28 03:41:12;;;;;;;9.38;1.70;;;2.80;99.90;;;;;;6281056;22;20016;-91
2023/03/28 03:43:37;;;;;;;7.38;1.80;;;2.70;99.90;;;;;;6280109;22;20063;-94
2023/03/28 03:46:03;;;;;;;7.75;1.30;;;2.70;99.90;;;;;;6308481;22;20015;-93
2023/03/28 03:48:29;;;;;;;8.45;1.70;;;2.70;99.90;;;;;;6281157;22;20429;-92
2023/03/28 03:50:55;;;;;;;7.88;1.50;;;2.60;99.90;;;;;;6308158;22;20046;-93
2023/03/28 03:53:20;;;;;;;8.07;1.58;;;2.70;99.90;;;;;;6308019;22;20477;-91
2023/03/28 03:55:46;;;;;;;10.02;1.50;;;2.70;99.90;;;;;;6308805;22;20019;-91
2023/03/28 03:58:12;;;;;;;8.73;1.58;;;2.60;99.90;;;;;;6307919;22;20080;-91
2023/03/28 04:00:38;;;;;;;6.40;1.75;;;2.60;99.90;;;;;;6281083;22;20455;-92
2023/03/28 04:03:04;;;;;;;7.90;1.50;;;2.50;99.90;;;;;;6281412;22;20019;-93
2023/03/28 04:05:29;;;;;;;8.45;1.60;;;2.50;99.90;;;;;;6280495;22;20022;-92
2023/03/28 04:07:56;;;;;;;8.40;1.38;;;2.50;99.90;;;;;;6308745;22;20018;-92
2023/03/28 04:10:22;;;;;;;9.30;1.65;;;2.50;99.90;;;;;;6280373;22;20019;-91
2023/03/28 04:12:47;;;;;;;7.63;1.40;;;2.50;99.90;;;;;;6281449;22;20094;-92
2023/03/28 04:15:13;;;;;;;8.40;1.58;;;2.40;99.90;;;;;;6308512;22;20015;-93
2023/03/28 04:17:40;;;;;;;7.43;1.55;;;2.40;99.90;;;;;;6280799;22;20023;-95
2023/03/28 04:20:12;;;;;;;8.18;1.40;;;2.40;99.90;;;;;;6308361;22;20011;-92
2023/03/28 04:22:39;;;;;;;8.85;1.50;;;2.40;99.90;;;;;;6308695;22;20080;-93
2023/03/28 04:25:07;;;;;;;9.43;1.40;;;2.40;99.90;;;;;;6280801;22;20019;-92
2023/03/28 04:27:32;;;;;;;5.97;1.70;;;2.30;99.90;;;;;;6308094;22;20043;-92
2023/03/28 04:30:00;;;;;;;7.45;1.50;;;2.30;99.90;;;;;;6308246;22;20058;-93
2023/03/28 04:32:26;;;;;;;8.48;1.73;;;2.30;99.90;;;;;;6280620;22;20019;-93
2023/03/28 04:34:52;;;;;;;9.45;1.90;;;2.30;99.90;;;;;;6281020;22;20015;-92
2023/03/28 04:37:18;;;;;;;6.53;1.42;;;2.30;99.90;;;;;;6307680;22;20440;-93
2023/03/28 04:39:46;;;;;;;5.97;1.42;;;2.30;99.90;;;;;;6280626;22;20023;-93
2023/03/28 04:42:15;;;;;;;7.75;1.50;;;2.30;99.90;;;;;;6308422;22;20068;-92
2023/03/28 04:44:41;;;;;;;8.68;2.10;;;2.20;99.90;;;;;;6281018;22;20457;-92
2023/03/28 04:47:10;;;;;;;8.07;1.70;;;2.20;99.90;;;;;;6281049;22;20071;-93
2023/03/28 04:49:37;;;;;;;6.60;1.65;;;2.20;99.90;;;;;;6281178;22;20019;-93
2023/03/28 04:52:04;;;;;;;7.10;1.48;;;2.20;99.90;;;;;;6281121;22;20088;-92
2023/03/28 04:54:29;;;;;;;7.32;1.60;;;2.20;99.90;;;;;;6280442;22;20022;-92
2023/03/28 04:56:55;;;;;;;8.77;1.80;;;2.20;99.90;;;;;;6308521;22;20012;-92
2023/03/28 04:59:21;;;;;;;10.18;1.70;;;2.20;99.90;;;;;;6308458;22;20020;-92
2023/03/28 05:01:50;;;;;;;9.63;1.90;;;2.10;99.90;;;;;;6280216;22;20057;-94
2023/03/28 05:04:20;;;;;;;7.93;1.52;;;2.10;99.90;;;;;;6307847;22;20344;-92
2023/03/28 05:06:47;;;;;;;6.13;1.52;;;2.10;99.90;;;;;;6280459;22;20015;-93
2023/03/28 05:09:13;;;;;;;6.05;1.65;;;2.10;99.90;;;;;;6280000;22;20328;-92
2023/03/28 05:11:39;;;;;;;7.43;1.50;;;2.10;99.90;;;;;;6308495;22;20026;-92
2023/03/28 05:14:06;;;;;;;7.53;1.60;;;2.10;99.90;;;;;;6309863;22;20012;-93
2023/03/28 05:16:31;;;;;;;7.20;1.63;;;2.00;99.90;;;;;;6282358;22;20019;-92
2023/03/28 05:18:57;;;;;;;7.25;1.50;;;2.00;99.90;;;;;;6282718;22;20331;-93
2023/03/28 05:21:23;;;;;;;10.48;1.90;;;2.00;99.90;;;;;;6283081;22;20443;-93
2023/03/28 05:23:49;;;;;;;5.85;1.65;;;2.00;99.90;;;;;;6310364;22;20042;-93
2023/03/28 05:26:15;;;;;;;11.25;1.92;;;2.00;99.90;;;;;;6282536;22;20019;-94
2023/03/28 05:28:41;;;;;;;8.30;1.75;;;2.00;99.90;;;;;;6310651;22;20094;-92
2023/03/28 05:31:07;;;;;;;6.97;1.83;;;1.90;99.90;;;;;;6283278;22;20489;-93
2023/03/28 05:33:33;;;;;;;7.18;1.42;;;1.90;99.90;;;;;;6282788;22;20021;-93
2023/03/28 05:35:59;;;;;;;10.10;1.60;;;1.90;99.90;;;;;;6282326;22;20011;-89
2023/03/28 05:38:25;;;;;;;9.63;1.45;;;1.90;99.90;;;;;;6281720;22;20064;-91
2023/03/28 05:40:52;;;;;;;5.38;1.50;;;1.90;99.90;;;;;;6282181;22;20381;-90
2023/03/28 05:43:17;;;;;;;10.43;1.67;;;1.90;99.90;;;;;;6307945;22;20011;-89
2023/03/28 05:45:45;;;;;;;8.00;1.88;;;1.90;99.90;;;;;;6309625;22;20138;-90
2023/03/28 05:48:10;;;;;;;9.25;1.70;;;1.90;99.90;;;;;;6309192;22;20015;-89
2023/03/28 05:50:36;;;;;;;8.07;1.70;;;1.80;99.90;;;;;;6280086;22;20350;-91
2023/03/28 05:53:01;;;;;;;6.38;1.48;;;1.80;99.90;;;;;;6280793;22;20452;-90
2023/03/28 05:55:27;;;;;;;8.80;1.75;;;1.80;99.90;;;;;;6280649;22;20335;-90
2023/03/28 05:57:52;;;;;;;6.10;1.70;;;1.80;99.90;;;;;;6308664;22;20074;-90
2023/03/28 06:00:18;;;;;;;8.75;1.90;;;1.80;99.90;;;;;;6281772;22;20015;-91
2023/03/28 06:02:45;;;;;;;7.47;1.90;;;1.80;99.90;;;;;;6280189;22;20012;-91
2023/03/28 06:05:11;;;;;;;11.88;1.70;;;1.70;99.90;;;;;;6280640;22;20019;-90
2023/03/28 06:07:40;;;;;;;6.25;1.60;;;1.70;99.90;;;;;;6282334;22;20523;-95
2023/03/28 06:10:07;;;;;;;7.70;1.95;;;1.70;99.90;;;;;;6280068;22;20027;-93
2023/03/28 06:12:33;;;;;;;8.38;1.60;;;1.70;99.90;;;;;;6279509;22;20098;-91
2023/03/28 06:14:58;;;;;;;6.85;1.77;;;1.70;99.90;;;;;;6308295;22;20035;-91
2023/03/28 06:17:24;;;;;;;8.65;1.52;;;1.70;99.90;;;;;;6279687;22;20443;-91
2023/03/28 06:19:50;;;;;;;8.10;1.70;;;1.70;99.90;;;;;;6280159;22;20011;-92
2023/03/28 06:22:16;;;;;;;6.95;1.67;;;1.70;99.90;;;;;;6307800;22;20037;-91
2023/03/28 06:24:41;;;;;;;8.32;1.50;;;1.70;99.90;;;;;;6281311;22;20011;-92
2023/03/28 06:27:07;;;;;;;13.00;1.98;;;1.70;99.90;;;;;;6308426;22;20018;-90
2023/03/28 06:29:33;;;;;;;7.13;1.70;;;1.70;99.90;;;;;;6280912;22;20392;-95
2023/03/28 06:31:58;;;;;;;10.93;1.92;;;1.70;99.90;;;;;;6319675;22;20036;-95
2023/03/28 06:34:26;;;;;;;11.10;2.10;;;1.70;99.90;;;;;;6282945;22;20439;-93
2023/03/28 06:36:52;;;;;;;8.40;1.88;;;1.70;99.90;;;;;;6281728;22;20343;-93
2023/03/28 06:39:21;;;;;;;5.68;1.50;;;1.80;99.90;;;;;;6281714;22;20019;-94
2023/03/28 06:41:47;;;;;;;8.63;1.75;;;1.80;99.90;;;;;;6281831;22;20309;-94
2023/03/28 06:44:13;;;;;;;9.30;1.88;;;1.80;99.90;;;;;;6281668;22;20075;-95
2023/03/28 06:46:38;;;;;;;7.55;1.40;;;1.80;99.90;;;;;;6309327;22;20015;-95
2023/03/28 06:49:05;;;;;;;10.38;1.67;;;1.80;99.90;;;;;;6281655;22;20022;-94
2023/03/28 06:51:31;;;;;;;6.93;1.60;;;1.80;99.90;;;;;;6308775;22;20015;-94
2023/03/28 06:53:56;;;;;;;8.52;1.67;;;1.80;99.90;;;;;;6281950;22;20019;-95
2023/03/28 06:56:22;;;;;;;11.40;1.88;;;1.90;99.90;;;;;;6282271;22;20033;-94
2023/03/28 06:58:47;;;;;;;8.75;1.77;;;1.90;99.90;;;;;;6282792;22;20011;-95
2023/03/28 07:01:14;;;;;;;8.75;1.90;;;1.90;99.90;;;;;;6281805;22;20022;-94
2023/03/28 07:03:40;;;;;;;13.20;2.67;;;2.00;99.90;;;;;;6282627;22;20015;-95
2023/03/28 07:06:07;;;;;;;9.35;1.95;;;2.00;99.90;;;;;;6309987;22;20015;-95
2023/03/28 07:08:34;;;;;;;13.32;2.50;;;2.10;99.90;;;;;;6282135;22;20018;-96
2023/03/28 07:10:59;;;;;;;16.00;2.38;;;2.20;99.90;;;;;;6310310;22;20011;-95
2023/03/28 07:13:25;;;;;;;16.90;2.10;;;2.30;99.90;;;;;;6282091;22;20046;-95
2023/03/28 07:16:05;;;;;;;12.15;1.88;;;2.30;99.90;;;;;;6309961;22;20023;-94
2023/03/28 07:18:31;;;;;;;11.00;2.20;;;2.50;99.90;;;;;;6282276;22;20026;-96
2023/03/28 07:20:57;;;;;;;11.27;1.70;;;2.60;99.90;;;;;;6310048;22;20015;-96
2023/03/28 07:23:23;;;;;;;10.25;1.70;;;2.70;99.90;;;;;;6282256;22;20098;-96
2023/03/28 07:25:49;;;;;;;12.50;1.40;;;2.80;99.90;;;;;;6309650;22;20053;-96
2023/03/28 07:28:14;;;;;;;12.15;1.92;;;2.90;99.90;;;;;;6282042;22;20016;-96
2023/03/28 07:30:40;;;;;;;10.75;1.70;;;3.10;99.90;;;;;;6282326;22;20023;-95
2023/03/28 07:33:06;;;;;;;16.38;2.20;;;3.20;99.90;;;;;;6309943;22;20074;-94
2023/03/28 07:35:32;;;;;;;10.25;1.58;;;3.30;99.90;;;;;;6281574;22;20015;-94
2023/03/28 07:37:58;;;;;;;7.95;1.60;;;3.40;99.90;;;;;;6282527;22;20019;-94
2023/03/28 07:40:23;;;;;;;10.38;2.22;;;3.50;99.90;;;;;;6282045;22;20022;-94
2023/03/28 07:42:49;;;;;;;12.70;1.70;;;3.60;99.90;;;;;;6282026;22;20015;-95
2023/03/28 07:45:15;;;;;;;10.27;1.65;;;3.60;99.90;;;;;;6283610;22;20041;-95
2023/03/28 07:47:41;;;;;;;13.02;1.73;;;3.70;99.90;;;;;;6286879;22;20021;-94
2023/03/28 07:50:07;;;;;;;7.65;1.48;;;3.80;99.90;;;;;;6311661;22;20026;-91
2023/03/28 07:52:33;;;;;;;10.68;1.45;;;3.90;99.90;;;;;;6284234;22;20513;-95
2023/03/28 07:54:58;;;;;;;12.98;1.90;;;3.90;99.90;;;;;;6285876;22;20019;-95
2023/03/28 07:57:24;;;;;;;7.70;1.60;;;4.00;99.90;;;;;;6282056;22;20014;-95
2023/03/28 07:59:54;;;;;;;11.70;1.50;;;4.10;99.90;;;;;;6282986;22;20053;-95
2023/03/28 08:02:20;;;;;;;10.63;1.65;;;4.10;99.90;;;;;;6280959;22;20069;-94
2023/03/28 08:04:54;;;;;;;17.00;2.28;;;4.20;99.90;;;;;;6309748;22;20447;-95
2023/03/28 08:07:19;;;;;;;13.65;1.45;;;4.30;99.90;;;;;;6283302;22;20066;-94
2023/03/28 08:09:46;;;;;;;11.68;1.70;;;4.30;99.90;;;;;;6288046;22;20026;-96
2023/03/28 08:12:12;;;;;;;8.98;1.73;;;4.30;99.90;;;;;;6284011;22;20023;-95
2023/03/28 08:14:37;;;;;;;9.20;1.80;;;4.40;99.90;;;;;;6282849;22;20019;-95
2023/03/28 08:17:03;;;;;;;7.72;1.90;;;4.40;99.90;;;;;;6309873;22;20007;-95
2023/03/28 08:19:29;;;;;;;10.55;2.00;;;4.50;99.90;;;;;;6283916;22;20437;-95
2023/03/28 08:21:57;;;;;;;8.32;1.75;;;4.50;99.90;;;;;;6285265;22;20041;-94
2023/03/28 08:24:23;;;;;;;12.02;2.10;;;4.60;99.90;;;;;;6283627;22;20019;-95
2023/03/28 08:26:48;;;;;;;11.88;2.22;;;4.70;99.90;;;;;;6291159;22;20024;-95
2023/03/28 08:29:16;;;;;;;7.97;1.90;;;4.80;99.90;;;;;;6316668;22;20033;-95
2023/03/28 08:31:42;;;;;;;14.65;2.30;;;4.90;99.90;;;;;;6314307;22;20474;-95
2023/03/28 08:34:08;;;;;;;14.00;2.17;;;4.90;99.90;;;;;;6288966;22;20098;-95
2023/03/28 08:36:33;;;;;;;12.52;2.75;;;5.00;99.90;;;;;;6282207;22;20513;-96
2023/03/28 08:38:59;;;;;;;11.02;2.30;;;5.10;99.90;;;;;;6281378;22;20018;-94
2023/03/28 08:41:50;;;;;;;14.27;2.35;;;5.20;99.90;;;;;;6282085;22;20106;-94
2023/03/28 08:44:52;;;;;;;7.45;2.30;;;5.20;99.90;;;;;;6285671;22;20015;-95
2023/03/28 08:47:27;;;;;;;10.63;2.13;;;5.30;99.90;;;;;;6285835;22;20447;-95
2023/03/28 08:50:00;;;;;;;8.50;2.03;;;5.30;99.90;;;;;;6291756;22;20012;-96
2023/03/28 08:52:27;;;;;;;11.38;1.83;;;5.40;99.70;;;;;;6318386;22;20428;-96
2023/03/28 08:55:12;;;;;;;9.00;1.83;;;5.50;99.30;;;;;;6320230;22;20061;-96
2023/03/28 08:57:39;;;;;;;8.90;1.45;;;5.50;98.80;;;;;;6299481;22;20022;-95
2023/03/28 09:00:16;;;;;;;6.15;1.20;;;5.60;98.50;;;;;;6294964;22;20037;-96
2023/03/28 09:02:42;;;;;;;6.93;1.20;;;5.60;97.70;;;;;;6300277;22;20049;-96
2023/03/28 09:05:16;;;;;;;8.43;1.35;;;5.70;97.40;;;;;;6329026;22;20039;-96
2023/03/28 09:08:17;;;;;;;8.75;1.70;;;5.80;97.20;;;;;;6324418;22;20011;-96
2023/03/28 09:10:54;;;;;;;6.57;1.55;;;5.80;97.00;;;;;;6300524;22;20019;-95
2023/03/28 09:13:29;;;;;;;7.13;1.17;;;5.80;96.70;;;;;;6327773;22;20020;-95
2023/03/28 09:16:19;;;;;;;5.93;1.42;;;5.80;96.30;;;;;;6303993;22;20015;-96
2023/03/28 09:19:09;;;;;;;9.30;2.17;;;5.90;95.90;;;;;;6301192;22;20063;-96
2023/03/28 09:22:18;;;;;;;8.95;3.20;;;5.90;95.80;;;;;;6331730;22;20026;-96
2023/03/28 09:25:07;;;;;;;7.90;1.67;;;6.00;95.90;;;;;;6270652;22;20015;-96
2023/03/28 09:27:56;;;;;;;5.85;1.48;;;6.10;96.40;;;;;;6298149;22;20019;-96
2023/03/28 09:30:33;;;;;;;6.82;1.48;;;6.20;96.40;;;;;;6314414;22;20015;-96
2023/03/28 09:33:04;;;;;;;5.60;1.25;;;6.20;96.60;;;;;;6302572;22;20015;-96
2023/03/28 09:35:31;;;;;;;4.13;1.10;;;6.30;96.10;;;;;;6296877;22;20030;-96
2023/03/28 09:38:19;;;;;;;3.63;1.00;;;6.30;95.90;;;;;;6301567;22;20027;-96
2023/03/28 09:40:46;;;;;;;6.30;1.30;;;6.40;95.90;;;;;;6301915;22;20007;-96
2023/03/28 09:43:27;;;;;;;9.30;1.40;;;6.40;95.80;;;;;;6318161;22;20016;-96
2023/03/28 09:45:57;;;;;;;6.70;1.30;;;6.50;95.30;;;;;;6292464;22;20015;-95
2023/03/28 09:48:32;;;;;;;5.05;1.00;;;6.50;95.70;;;;;;6286352;22;20007;-95
2023/03/28 09:50:59;;;;;;;4.50;0.88;;;6.60;95.10;;;;;;6315465;22;20015;-96
2023/03/28 09:53:32;;;;;;;5.45;0.90;;;6.70;95.00;;;;;;6292931;22;20011;-95
2023/03/28 09:56:24;;;;;;;7.30;1.57;;;6.80;94.80;;;;;;6319234;22;20098;-96
2023/03/28 09:59:01;;;;;;;6.28;1.30;;;6.90;94.90;;;;;;6287492;22;20016;-95
2023/03/28 10:01:46;;;;;;;6.82;1.15;;;7.00;94.40;;;;;;6294897;22;20049;-96
2023/03/28 10:04:16;;;;;;;6.85;1.10;;;7.00;94.30;;;;;;6290864;22;20011;-96
2023/03/28 10:06:43;;;;;;;8.48;1.10;;;7.00;93.90;;;;;;6286152;22;20019;-94
2023/03/28 10:09:09;;;;;;;10.75;1.60;;;7.00;94.10;;;;;;6294734;22;20058;-96
2023/03/28 10:11:48;;;;;;;7.07;1.35;;;7.00;93.70;;;;;;6328983;22;20023;-96
2023/03/28 10:14:44;;;;;;;7.20;1.33;;;7.10;94.60;;;;;;6307596;22;20058;-96
2023/03/28 10:17:39;;;;;;;7.30;1.20;;;7.10;94.40;;;;;;6307379;22;20049;-96
2023/03/28 10:20:23;;;;;;;7.78;1.27;;;7.20;94.00;;;;;;6307724;22;20019;-96
2023/03/28 10:22:55;;;;;;;5.53;1.23;;;7.20;94.20;;;;;;6303842;22;20019;-96
2023/03/28 10:25:52;;;;;;;5.90;1.08;;;7.20;94.10;;;;;;6332130;22;20019;-96
2023/03/28 10:28:38;;;;;;;7.60;1.50;;;7.30;93.70;;;;;;6306377;22;20313;-96
2023/03/28 10:31:04;;;;;;;7.05;1.30;;;7.40;93.80;;;;;;6306016;22;19999;-96
2023/03/28 10:33:35;;;;;;;5.63;1.30;;;7.40;93.70;;;;;;6299388;22;20011;-96
2023/03/28 10:36:09;;;;;;;5.90;1.27;;;7.50;94.20;;;;;;6313090;22;20086;-96
2023/03/28 10:38:46;;;;;;;6.32;1.25;;;7.60;93.40;;;;;;6287896;22;20018;-93
2023/03/28 10:41:28;;;;;;;6.20;1.63;;;7.60;93.40;;;;;;6281277;22;20072;-91
2023/03/28 10:43:55;;;;;;;6.60;1.27;;;7.60;92.60;;;;;;6308735;22;20007;-93
2023/03/28 10:46:28;;;;;;;8.23;1.30;;;7.60;93.00;;;;;;6308082;22;20042;-93
2023/03/28 10:49:03;;;;;;;6.80;1.45;;;7.70;92.60;;;;;;6309442;22;20090;-92
2023/03/28 10:51:31;;;;;;;6.57;2.05;;;7.70;92.90;;;;;;6280876;22;20026;-92
2023/03/28 10:54:08;;;;;;;7.45;2.38;;;7.70;92.30;;;;;;6281322;22;20022;-91
2023/03/28 10:56:40;;;;;;;10.98;1.73;;;7.70;92.00;;;;;;6280897;22;20069;-92
2023/03/28 10:59:24;;;;;;;7.95;2.00;;;7.70;92.00;;;;;;6280536;22;20014;-91
2023/03/28 11:02:03;;;;;;;7.93;1.88;;;7.70;92.30;;;;;;6280394;22;20023;-91
2023/03/28 11:04:46;;;;;;;6.63;1.70;;;7.80;92.70;;;;;;6308876;22;20012;-92
2023/03/28 11:07:31;;;;;;;6.95;1.92;;;7.80;93.40;;;;;;6307708;22;20431;-91
2023/03/28 11:10:02;;;;;;;9.27;1.90;;;7.90;92.90;;;;;;6308498;22;20033;-92
2023/03/28 11:12:53;;;;;;;7.60;1.90;;;7.80;92.10;;;;;;6281488;22;20045;-91
2023/03/28 11:15:28;;;;;;;6.63;1.75;;;7.90;91.70;;;;;;6281233;22;20443;-91
2023/03/28 11:18:02;;;;;;;6.75;1.80;;;7.90;92.10;;;;;;6308192;22;20015;-96
2023/03/28 11:20:41;;;;;;;7.18;1.95;;;7.90;92.40;;;;;;6305480;22;20094;-91
2023/03/28 11:23:34;;;;;;;7.45;2.35;;;8.00;92.70;;;;;;6279532;22;20101;-92
2023/03/28 11:26:12;;;;;;;6.05;2.03;;;8.00;92.40;;;;;;6280504;22;20023;-92
2023/03/28 11:28:58;;;;;;;6.55;1.98;;;8.00;93.00;;;;;;6280222;22;20349;-93
2023/03/28 11:31:46;;;;;;;7.00;2.03;;;8.10;92.60;;;;;;6308611;22;20050;-93
2023/03/28 11:34:27;;;;;;;7.30;2.00;;;8.10;92.40;;;;;;6261975;22;20030;-92
2023/03/28 11:37:02;;;;;;;5.95;1.65;;;8.10;92.40;;;;;;6308983;22;20462;-92
2023/03/28 11:39:41;;;;;;;8.55;2.33;;;8.10;92.30;;;;;;6308387;22;20015;-93
2023/03/28 11:42:13;;;;;;;8.77;1.90;;;8.20;92.40;;;;;;6280999;22;20015;-95
2023/03/28 11:44:45;;;;;;;6.45;1.83;;;8.20;91.40;;;;;;6280147;22;20015;-88
2023/03/28 11:47:33;;;;;;;5.35;1.90;;;8.20;91.10;;;;;;6275439;22;20451;-88
2023/03/28 11:50:27;;;;;;;6.40;2.20;;;8.20;91.50;;;;;;6303311;22;20090;-88
2023/03/28 11:53:05;;;;;;;7.55;2.03;;;8.20;92.30;;;;;;6303817;22;20016;-90
2023/03/28 11:55:48;;;;;;;6.05;1.95;;;8.20;92.70;;;;;;6303113;22;20019;-91
2023/03/28 11:58:22;;;;;;;5.25;1.90;;;8.30;92.70;;;;;;6306374;22;20037;-90
2023/03/28 12:00:51;;;;;;;;;;;8.30;92.00;;;;;;6305978;22;20021;-89
2023/03/28 12:03:36;;;;;;;7.70;1.77;;;8.30;90.50;;;;;;6306672;22;19938;-91
2023/03/28 12:06:23;;;;;;;5.45;1.90;;;8.40;91.20;;;;;;6307911;22;20019;-90
2023/03/28 12:08:59;;;;;;;7.07;2.13;;;8.40;92.10;;;;;;6279030;22;20036;-90
2023/03/28 12:12:08;;;;;;;6.57;1.60;;;8.50;91.70;;;;;;6279645;22;20016;-91
2023/03/28 12:14:48;;;;;;;7.18;2.22;;;8.50;91.60;;;;;;6307637;22;20019;-91
2023/03/28 12:17:21;;;;;;;7.43;2.30;;;8.50;91.50;;;;;;6306267;22;20482;-91
2023/03/28 12:19:47;;;;;;;6.57;2.10;;;8.60;92.00;;;;;;6280319;22;20090;-90
2023/03/28 12:22:25;;;;;;;5.93;2.10;;;8.60;92.40;;;;;;6308462;22;20015;-89
2023/03/28 12:25:05;;;;;;;6.82;2.20;;;8.70;91.10;;;;;;6281433;22;20019;-90
2023/03/28 12:27:54;;;;;;;6.97;1.90;;;8.70;92.00;;;;;;6310187;22;20101;-90
2023/03/28 12:30:36;;;;;;;8.50;1.95;;;8.80;92.30;;;;;;6281507;22;20090;-90
2023/03/28 12:33:15;;;;;;;6.65;2.00;;;8.80;92.00;;;;;;6310018;22;20015;-89
2023/03/28 12:36:16;;;;;;;8.65;2.25;;;8.80;92.40;;;;;;6282092;22;20025;-90
2023/03/28 12:39:00;;;;;;;7.20;2.13;;;8.90;93.20;;;;;;6308965;22;20039;-89
2023/03/28 12:41:33;;;;;;;7.55;2.22;;;8.90;92.30;;;;;;6309300;22;20015;-89
2023/03/28 12:44:12;;;;;;;8.32;2.33;;;9.00;92.30;;;;;;6281100;22;20008;-88
2023/03/28 12:46:47;;;;;;;6.55;2.25;;;9.00;91.00;;;;;;6309583;22;20082;-88
2023/03/28 12:49:12;;;;;;;6.93;2.00;;;9.10;91.40;;;;;;6281703;22;20018;-90
2023/03/28 12:51:52;;;;;;;6.00;1.90;;;9.10;91.20;;;;;;6308961;22;20015;-89
2023/03/28 12:54:27;;;;;;;5.80;1.95;;;9.10;91.20;;;;;;6281499;22;20022;-90
2023/03/28 12:57:08;;;;;;;6.50;2.53;;;9.10;91.50;;;;;;6309710;22;20323;-89
2023/03/28 12:59:40;;;;;;;8.00;2.30;;;9.10;92.50;;;;;;6281190;22;20053;-89
2023/03/28 13:02:32;;;;;;;9.05;1.70;;;9.20;93.30;;;;;;6309509;22;20098;-90
2023/03/28 13:05:20;;;;;;;7.53;2.05;;;9.20;91.80;;;;;;6281162;22;20069;-91
2023/03/28 13:08:04;;;;;;;6.82;1.92;;;9.20;91.40;;;;;;6282028;22;20012;-89
2023/03/28 13:11:04;;;;;;;5.85;2.00;;;9.20;91.50;;;;;;6308623;22;20094;-90
2023/03/28 13:13:53;;;;;;;8.02;1.90;;;9.20;92.30;;;;;;6280809;22;20019;-90
2023/03/28 13:16:25;;;;;;;7.18;2.00;;;9.20;91.30;;;;;;6281486;22;20019;-90
2023/03/28 13:19:07;;;;;;;8.27;2.20;;;9.20;90.10;;;;;;6281925;22;20023;-89
2023/03/28 13:21:42;;;;;;;8.45;2.00;;;9.20;87.50;;;;;;6281302;22;20054;-90
2023/03/28 13:24:28;;;;;;;6.28;2.10;;;9.20;89.40;;;;;;6280465;22;20050;-88